sensor_id;sensor_type;location;lat;lon;timestamp;P1;durP1;ratioP1;P2;durP2;ratioP2
24151;SDS011;12311;50.866;4.332;2023-06-22T00:00:52;2.22;;;1.45;;
24151;SDS011;12311;50.866;4.332;2023-06-22T00:03:18;4.57;;;1.98;;
24151;SDS011;12311;50.866;4.332;2023-06-22T00:05:45;2.63;;;1.50;;
24151;SDS011;12311;50.866;4.332;2023-06-22T00:08:12;5.82;;;2.00;;
24151;SDS011;12311;50.866;4.332;2023-06-22T00:10:38;4.05;;;1.55;;
24151;SDS011;12311;50.866;4.332;2023-06-22T00:13:05;4.38;;;1.90;;
24151;SDS011;12311;50.866;4.332;2023-06-22T00:15:32;3.30;;;1.45;;
24151;SDS011;12311;50.866;4.332;2023-06-22T00:17:58;3.05;;;1.38;;
24151;SDS011;12311;50.866;4.332;2023-06-22T00:20:24;2.88;;;1.30;;
24151;SDS011;12311;50.866;4.332;2023-06-22T00:22:53;4.97;;;1.88;;
24151;SDS011;12311;50.866;4.332;2023-06-22T00:25:20;4.18;;;1.63;;
24151;SDS011;12311;50.866;4.332;2023-06-22T00:27:46;8.20;;;1.98;;
24151;SDS011;12311;50.866;4.332;2023-06-22T00:30:12;3.80;;;2.35;;
24151;SDS011;12311;50.866;4.332;2023-06-22T00:32:38;2.92;;;1.23;;
24151;SDS011;12311;50.866;4.332;2023-06-22T00:35:04;3.75;;;1.85;;
24151;SDS011;12311;50.866;4.332;2023-06-22T00:37:30;3.08;;;1.50;;
24151;SDS011;12311;50.866;4.332;2023-06-22T00:39:56;2.40;;;1.15;;
24151;SDS011;12311;50.866;4.332;2023-06-22T00:42:23;2.35;;;1.20;;
24151;SDS011;12311;50.866;4.332;2023-06-22T00:44:48;3.80;;;1.80;;
24151;SDS011;12311;50.866;4.332;2023-06-22T00:47:14;2.20;;;1.20;;
24151;SDS011;12311;50.866;4.332;2023-06-22T00:49:42;3.95;;;1.60;;
24151;SDS011;12311;50.866;4.332;2023-06-22T00:52:08;2.92;;;1.40;;
24151;SDS011;12311;50.866;4.332;2023-06-22T00:54:39;1.98;;;0.98;;
24151;SDS011;12311;50.866;4.332;2023-06-22T00:59:42;1.48;;;0.90;;
24151;SDS011;12311;50.866;4.332;2023-06-22T01:02:09;3.08;;;1.10;;
24151;SDS011;12311;50.866;4.332;2023-06-22T01:04:36;5.30;;;1.67;;
24151;SDS011;12311;50.866;4.332;2023-06-22T01:09:39;3.13;;;1.67;;
24151;SDS011;12311;50.866;4.332;2023-06-22T01:12:16;3.97;;;1.38;;
24151;SDS011;12311;50.866;4.332;2023-06-22T01:14:45;3.60;;;1.77;;
24151;SDS011;12311;50.866;4.332;2023-06-22T01:17:17;2.67;;;1.48;;
24151;SDS011;12311;50.866;4.332;2023-06-22T01:19:45;2.08;;;1.25;;
24151;SDS011;12311;50.866;4.332;2023-06-22T01:22:15;3.10;;;1.35;;
24151;SDS011;12311;50.866;4.332;2023-06-22T01:27:33;3.90;;;1.30;;
24151;SDS011;12311;50.866;4.332;2023-06-22T01:30:02;2.08;;;1.00;;
24151;SDS011;12311;50.866;4.332;2023-06-22T01:32:30;7.25;;;1.65;;
24151;SDS011;12311;50.866;4.332;2023-06-22T01:34:58;2.75;;;1.60;;
24151;SDS011;12311;50.866;4.332;2023-06-22T01:37:27;4.65;;;1.20;;
24151;SDS011;12311;50.866;4.332;2023-06-22T01:39:53;7.07;;;1.75;;
24151;SDS011;12311;50.866;4.332;2023-06-22T01:42:21;3.33;;;1.30;;
24151;SDS011;12311;50.866;4.332;2023-06-22T01:44:49;3.08;;;1.13;;
24151;SDS011;12311;50.866;4.332;2023-06-22T01:47:15;3.97;;;1.58;;
24151;SDS011;12311;50.866;4.332;2023-06-22T01:49:42;1.70;;;0.93;;
24151;SDS011;12311;50.866;4.332;2023-06-22T01:52:08;2.72;;;1.10;;
24151;SDS011;12311;50.866;4.332;2023-06-22T01:54:34;3.92;;;1.38;;
24151;SDS011;12311;50.866;4.332;2023-06-22T01:57:00;1.52;;;0.77;;
24151;SDS011;12311;50.866;4.332;2023-06-22T01:59:32;2.38;;;0.93;;
24151;SDS011;12311;50.866;4.332;2023-06-22T02:02:11;5.10;;;1.30;;
24151;SDS011;12311;50.866;4.332;2023-06-22T02:04:48;2.20;;;1.30;;
24151;SDS011;12311;50.866;4.332;2023-06-22T02:07:22;4.35;;;1.70;;
24151;SDS011;12311;50.866;4.332;2023-06-22T02:09:52;2.57;;;1.10;;
24151;SDS011;12311;50.866;4.332;2023-06-22T02:12:21;3.15;;;1.40;;
24151;SDS011;12311;50.866;4.332;2023-06-22T02:14:49;5.13;;;1.48;;
24151;SDS011;12311;50.866;4.332;2023-06-22T02:17:17;6.25;;;2.17;;
24151;SDS011;12311;50.866;4.332;2023-06-22T02:19:43;2.20;;;1.23;;
24151;SDS011;12311;50.866;4.332;2023-06-22T02:22:09;3.70;;;1.77;;
24151;SDS011;12311;50.866;4.332;2023-06-22T02:24:35;1.25;;;0.90;;
24151;SDS011;12311;50.866;4.332;2023-06-22T02:27:01;3.42;;;1.40;;
24151;SDS011;12311;50.866;4.332;2023-06-22T02:29:28;3.40;;;1.42;;
24151;SDS011;12311;50.866;4.332;2023-06-22T02:31:54;2.95;;;1.33;;
24151;SDS011;12311;50.866;4.332;2023-06-22T02:34:20;5.68;;;1.33;;
24151;SDS011;12311;50.866;4.332;2023-06-22T02:36:47;2.72;;;1.33;;
24151;SDS011;12311;50.866;4.332;2023-06-22T02:39:20;3.85;;;1.50;;
24151;SDS011;12311;50.866;4.332;2023-06-22T02:41:50;2.78;;;1.38;;
24151;SDS011;12311;50.866;4.332;2023-06-22T02:44:17;3.92;;;1.20;;
24151;SDS011;12311;50.866;4.332;2023-06-22T02:46:43;2.95;;;1.88;;
24151;SDS011;12311;50.866;4.332;2023-06-22T02:49:10;2.47;;;1.30;;
24151;SDS011;12311;50.866;4.332;2023-06-22T02:51:37;5.50;;;1.92;;
24151;SDS011;12311;50.866;4.332;2023-06-22T02:54:04;5.03;;;1.48;;
24151;SDS011;12311;50.866;4.332;2023-06-22T02:56:31;5.15;;;1.40;;
24151;SDS011;12311;50.866;4.332;2023-06-22T02:58:56;3.40;;;1.60;;
24151;SDS011;12311;50.866;4.332;2023-06-22T03:01:26;2.78;;;1.05;;
24151;SDS011;12311;50.866;4.332;2023-06-22T03:03:55;2.22;;;1.30;;
24151;SDS011;12311;50.866;4.332;2023-06-22T03:06:21;2.00;;;1.02;;
24151;SDS011;12311;50.866;4.332;2023-06-22T03:08:56;2.92;;;1.30;;
24151;SDS011;12311;50.866;4.332;2023-06-22T03:11:24;5.63;;;1.70;;
24151;SDS011;12311;50.866;4.332;2023-06-22T03:13:49;3.50;;;1.67;;
24151;SDS011;12311;50.866;4.332;2023-06-22T03:16:17;5.07;;;1.80;;
24151;SDS011;12311;50.866;4.332;2023-06-22T03:18:43;5.00;;;1.85;;
24151;SDS011;12311;50.866;4.332;2023-06-22T03:21:09;2.50;;;1.40;;
24151;SDS011;12311;50.866;4.332;2023-06-22T03:23:34;2.50;;;1.48;;
24151;SDS011;12311;50.866;4.332;2023-06-22T03:26:01;6.68;;;1.50;;
24151;SDS011;12311;50.866;4.332;2023-06-22T03:28:26;5.18;;;1.70;;
24151;SDS011;12311;50.866;4.332;2023-06-22T03:30:52;5.13;;;2.38;;
24151;SDS011;12311;50.866;4.332;2023-06-22T03:33:18;3.53;;;1.60;;
24151;SDS011;12311;50.866;4.332;2023-06-22T03:35:43;3.60;;;1.73;;
24151;SDS011;12311;50.866;4.332;2023-06-22T03:38:09;4.68;;;1.90;;
24151;SDS011;12311;50.866;4.332;2023-06-22T03:40:35;5.32;;;2.00;;
24151;SDS011;12311;50.866;4.332;2023-06-22T03:43:00;3.97;;;1.63;;
24151;SDS011;12311;50.866;4.332;2023-06-22T03:45:26;4.93;;;1.85;;
24151;SDS011;12311;50.866;4.332;2023-06-22T03:47:51;4.72;;;1.70;;
24151;SDS011;12311;50.866;4.332;2023-06-22T03:50:18;4.43;;;2.13;;
24151;SDS011;12311;50.866;4.332;2023-06-22T03:52:45;3.60;;;1.92;;
24151;SDS011;12311;50.866;4.332;2023-06-22T03:55:11;4.57;;;1.83;;
24151;SDS011;12311;50.866;4.332;2023-06-22T03:57:37;4.05;;;1.55;;
24151;SDS011;12311;50.866;4.332;2023-06-22T04:00:02;3.00;;;1.40;;
24151;SDS011;12311;50.866;4.332;2023-06-22T04:02:32;5.68;;;2.13;;
24151;SDS011;12311;50.866;4.332;2023-06-22T04:04:58;3.97;;;1.98;;
24151;SDS011;12311;50.866;4.332;2023-06-22T04:07:24;5.68;;;2.08;;
24151;SDS011;12311;50.866;4.332;2023-06-22T04:09:49;5.88;;;2.15;;
24151;SDS011;12311;50.866;4.332;2023-06-22T04:12:15;3.65;;;1.75;;
24151;SDS011;12311;50.866;4.332;2023-06-22T04:14:41;4.28;;;2.30;;
24151;SDS011;12311;50.866;4.332;2023-06-22T04:17:06;7.57;;;2.83;;
24151;SDS011;12311;50.866;4.332;2023-06-22T04:19:32;6.80;;;2.20;;
24151;SDS011;12311;50.866;4.332;2023-06-22T04:21:58;8.52;;;2.47;;
24151;SDS011;12311;50.866;4.332;2023-06-22T04:24:23;4.82;;;2.15;;
24151;SDS011;12311;50.866;4.332;2023-06-22T04:26:49;4.63;;;2.58;;
24151;SDS011;12311;50.866;4.332;2023-06-22T04:29:19;6.45;;;2.25;;
24151;SDS011;12311;50.866;4.332;2023-06-22T04:31:53;5.60;;;2.60;;
24151;SDS011;12311;50.866;4.332;2023-06-22T04:34:21;6.03;;;2.67;;
24151;SDS011;12311;50.866;4.332;2023-06-22T04:36:46;4.53;;;2.40;;
24151;SDS011;12311;50.866;4.332;2023-06-22T04:39:12;5.63;;;3.67;;
24151;SDS011;12311;50.866;4.332;2023-06-22T04:41:38;9.07;;;2.47;;
24151;SDS011;12311;50.866;4.332;2023-06-22T04:44:08;8.30;;;3.05;;
24151;SDS011;12311;50.866;4.332;2023-06-22T04:46:51;6.45;;;2.35;;
24151;SDS011;12311;50.866;4.332;2023-06-22T04:49:25;12.73;;;3.10;;
24151;SDS011;12311;50.866;4.332;2023-06-22T04:51:57;8.57;;;3.30;;
24151;SDS011;12311;50.866;4.332;2023-06-22T04:54:24;7.75;;;3.20;;
24151;SDS011;12311;50.866;4.332;2023-06-22T04:56:50;11.02;;;3.75;;
24151;SDS011;12311;50.866;4.332;2023-06-22T04:59:28;7.47;;;2.67;;
24151;SDS011;12311;50.866;4.332;2023-06-22T05:01:55;7.40;;;2.72;;
24151;SDS011;12311;50.866;4.332;2023-06-22T05:04:22;8.88;;;3.20;;
24151;SDS011;12311;50.866;4.332;2023-06-22T05:06:51;7.80;;;3.40;;
24151;SDS011;12311;50.866;4.332;2023-06-22T05:09:17;5.90;;;2.60;;
24151;SDS011;12311;50.866;4.332;2023-06-22T05:11:43;8.75;;;2.88;;
24151;SDS011;12311;50.866;4.332;2023-06-22T05:14:09;6.18;;;2.97;;
24151;SDS011;12311;50.866;4.332;2023-06-22T05:16:35;6.00;;;2.72;;
24151;SDS011;12311;50.866;4.332;2023-06-22T05:19:01;6.75;;;2.42;;
24151;SDS011;12311;50.866;4.332;2023-06-22T05:21:29;7.47;;;2.97;;
24151;SDS011;12311;50.866;4.332;2023-06-22T05:23:55;6.18;;;3.22;;
24151;SDS011;12311;50.866;4.332;2023-06-22T05:26:25;4.70;;;2.35;;
24151;SDS011;12311;50.866;4.332;2023-06-22T05:28:51;9.43;;;3.10;;
24151;SDS011;12311;50.866;4.332;2023-06-22T05:31:18;5.68;;;2.55;;
24151;SDS011;12311;50.866;4.332;2023-06-22T05:33:49;10.32;;;2.50;;
24151;SDS011;12311;50.866;4.332;2023-06-22T05:36:16;7.78;;;3.03;;
24151;SDS011;12311;50.866;4.332;2023-06-22T05:38:44;9.00;;;2.88;;
24151;SDS011;12311;50.866;4.332;2023-06-22T05:41:11;11.13;;;3.75;;
24151;SDS011;12311;50.866;4.332;2023-06-22T05:43:36;12.38;;;3.75;;
24151;SDS011;12311;50.866;4.332;2023-06-22T05:46:03;9.55;;;3.53;;
24151;SDS011;12311;50.866;4.332;2023-06-22T05:48:29;7.43;;;3.17;;
24151;SDS011;12311;50.866;4.332;2023-06-22T05:50:55;6.57;;;3.15;;
24151;SDS011;12311;50.866;4.332;2023-06-22T05:53:20;7.05;;;3.20;;
24151;SDS011;12311;50.866;4.332;2023-06-22T05:55:46;9.57;;;3.38;;
24151;SDS011;12311;50.866;4.332;2023-06-22T05:58:12;6.32;;;3.10;;
24151;SDS011;12311;50.866;4.332;2023-06-22T06:00:41;9.15;;;3.65;;
24151;SDS011;12311;50.866;4.332;2023-06-22T06:03:08;10.98;;;4.13;;
24151;SDS011;12311;50.866;4.332;2023-06-22T06:05:35;8.50;;;3.45;;
24151;SDS011;12311;50.866;4.332;2023-06-22T06:08:01;8.70;;;3.63;;
24151;SDS011;12311;50.866;4.332;2023-06-22T06:10:29;7.45;;;3.92;;
24151;SDS011;12311;50.866;4.332;2023-06-22T06:12:55;8.70;;;3.95;;
24151;SDS011;12311;50.866;4.332;2023-06-22T06:15:21;8.05;;;3.88;;
24151;SDS011;12311;50.866;4.332;2023-06-22T06:17:51;9.05;;;3.85;;
24151;SDS011;12311;50.866;4.332;2023-06-22T06:20:18;9.63;;;4.47;;
24151;SDS011;12311;50.866;4.332;2023-06-22T06:22:49;8.52;;;4.13;;
24151;SDS011;12311;50.866;4.332;2023-06-22T06:25:14;12.65;;;4.65;;
24151;SDS011;12311;50.866;4.332;2023-06-22T06:27:51;7.95;;;3.15;;
24151;SDS011;12311;50.866;4.332;2023-06-22T06:30:19;7.07;;;3.78;;
24151;SDS011;12311;50.866;4.332;2023-06-22T06:32:45;9.73;;;4.15;;
24151;SDS011;12311;50.866;4.332;2023-06-22T06:35:12;11.00;;;4.55;;
24151;SDS011;12311;50.866;4.332;2023-06-22T06:37:40;8.07;;;3.85;;
24151;SDS011;12311;50.866;4.332;2023-06-22T06:40:07;10.95;;;4.18;;
24151;SDS011;12311;50.866;4.332;2023-06-22T06:42:41;12.45;;;4.78;;
24151;SDS011;12311;50.866;4.332;2023-06-22T06:45:10;11.50;;;4.43;;
24151;SDS011;12311;50.866;4.332;2023-06-22T06:47:37;11.05;;;5.25;;
24151;SDS011;12311;50.866;4.332;2023-06-22T06:50:03;10.80;;;4.65;;
24151;SDS011;12311;50.866;4.332;2023-06-22T06:52:29;10.95;;;3.60;;
24151;SDS011;12311;50.866;4.332;2023-06-22T06:54:55;9.35;;;4.53;;
24151;SDS011;12311;50.866;4.332;2023-06-22T06:57:21;10.85;;;3.80;;
24151;SDS011;12311;50.866;4.332;2023-06-22T06:59:47;11.32;;;4.13;;
24151;SDS011;12311;50.866;4.332;2023-06-22T07:02:14;10.57;;;3.72;;
24151;SDS011;12311;50.866;4.332;2023-06-22T07:04:41;10.73;;;4.28;;
24151;SDS011;12311;50.866;4.332;2023-06-22T07:07:06;10.32;;;4.68;;
24151;SDS011;12311;50.866;4.332;2023-06-22T07:09:32;14.93;;;4.00;;
24151;SDS011;12311;50.866;4.332;2023-06-22T07:11:58;8.93;;;4.28;;
24151;SDS011;12311;50.866;4.332;2023-06-22T07:14:23;6.20;;;3.72;;
24151;SDS011;12311;50.866;4.332;2023-06-22T07:16:49;9.20;;;3.85;;
24151;SDS011;12311;50.866;4.332;2023-06-22T07:19:15;8.55;;;4.18;;
24151;SDS011;12311;50.866;4.332;2023-06-22T07:21:40;10.00;;;3.80;;
24151;SDS011;12311;50.866;4.332;2023-06-22T07:24:06;8.80;;;4.45;;
24151;SDS011;12311;50.866;4.332;2023-06-22T07:26:32;8.20;;;4.05;;
24151;SDS011;12311;50.866;4.332;2023-06-22T07:28:58;11.20;;;5.82;;
24151;SDS011;12311;50.866;4.332;2023-06-22T07:31:24;9.90;;;3.67;;
24151;SDS011;12311;50.866;4.332;2023-06-22T07:33:51;8.32;;;4.35;;
24151;SDS011;12311;50.866;4.332;2023-06-22T07:36:17;12.20;;;4.35;;
24151;SDS011;12311;50.866;4.332;2023-06-22T07:38:43;9.73;;;4.75;;
24151;SDS011;12311;50.866;4.332;2023-06-22T07:41:09;10.02;;;5.03;;
24151;SDS011;12311;50.866;4.332;2023-06-22T07:43:34;8.90;;;4.05;;
24151;SDS011;12311;50.866;4.332;2023-06-22T07:46:02;8.32;;;3.63;;
24151;SDS011;12311;50.866;4.332;2023-06-22T07:48:28;10.70;;;4.15;;
24151;SDS011;12311;50.866;4.332;2023-06-22T07:50:54;7.90;;;3.63;;
24151;SDS011;12311;50.866;4.332;2023-06-22T07:53:21;11.23;;;4.07;;
24151;SDS011;12311;50.866;4.332;2023-06-22T07:55:47;29.02;;;4.57;;
24151;SDS011;12311;50.866;4.332;2023-06-22T07:58:13;8.50;;;3.05;;
24151;SDS011;12311;50.866;4.332;2023-06-22T08:00:38;9.15;;;4.25;;
24151;SDS011;12311;50.866;4.332;2023-06-22T08:03:04;7.13;;;3.70;;
24151;SDS011;12311;50.866;4.332;2023-06-22T08:05:30;9.02;;;4.00;;
24151;SDS011;12311;50.866;4.332;2023-06-22T08:07:56;8.48;;;3.53;;
24151;SDS011;12311;50.866;4.332;2023-06-22T08:10:22;11.30;;;4.50;;
24151;SDS011;12311;50.866;4.332;2023-06-22T08:12:48;8.98;;;4.45;;
24151;SDS011;12311;50.866;4.332;2023-06-22T08:15:13;12.88;;;4.47;;
24151;SDS011;12311;50.866;4.332;2023-06-22T08:17:39;8.13;;;3.50;;
24151;SDS011;12311;50.866;4.332;2023-06-22T08:20:06;5.90;;;3.45;;
24151;SDS011;12311;50.866;4.332;2023-06-22T08:22:42;8.45;;;3.63;;
24151;SDS011;12311;50.866;4.332;2023-06-22T08:25:08;11.90;;;3.83;;
24151;SDS011;12311;50.866;4.332;2023-06-22T08:27:34;18.77;;;4.88;;
24151;SDS011;12311;50.866;4.332;2023-06-22T08:30:00;10.35;;;5.07;;
24151;SDS011;12311;50.866;4.332;2023-06-22T08:32:27;13.90;;;4.95;;
24151;SDS011;12311;50.866;4.332;2023-06-22T08:34:54;8.27;;;4.47;;
24151;SDS011;12311;50.866;4.332;2023-06-22T08:37:20;9.68;;;5.25;;
24151;SDS011;12311;50.866;4.332;2023-06-22T08:39:46;9.18;;;4.07;;
24151;SDS011;12311;50.866;4.332;2023-06-22T08:42:12;8.85;;;4.70;;
24151;SDS011;12311;50.866;4.332;2023-06-22T08:44:37;9.73;;;4.47;;
24151;SDS011;12311;50.866;4.332;2023-06-22T08:47:03;10.75;;;4.13;;
24151;SDS011;12311;50.866;4.332;2023-06-22T08:49:29;15.57;;;5.35;;
24151;SDS011;12311;50.866;4.332;2023-06-22T08:51:54;10.50;;;4.78;;
24151;SDS011;12311;50.866;4.332;2023-06-22T08:54:21;14.70;;;5.57;;
24151;SDS011;12311;50.866;4.332;2023-06-22T08:56:47;8.70;;;4.22;;
24151;SDS011;12311;50.866;4.332;2023-06-22T08:59:13;11.70;;;5.18;;
24151;SDS011;12311;50.866;4.332;2023-06-22T09:01:39;11.32;;;4.60;;
24151;SDS011;12311;50.866;4.332;2023-06-22T09:04:04;10.55;;;5.43;;
24151;SDS011;12311;50.866;4.332;2023-06-22T09:06:32;10.60;;;4.28;;
24151;SDS011;12311;50.866;4.332;2023-06-22T09:08:58;11.65;;;6.38;;
24151;SDS011;12311;50.866;4.332;2023-06-22T09:11:27;8.85;;;4.55;;
24151;SDS011;12311;50.866;4.332;2023-06-22T09:13:52;10.60;;;4.97;;
24151;SDS011;12311;50.866;4.332;2023-06-22T09:16:18;8.07;;;4.63;;
24151;SDS011;12311;50.866;4.332;2023-06-22T09:18:47;10.30;;;4.63;;
24151;SDS011;12311;50.866;4.332;2023-06-22T09:21:13;11.82;;;4.40;;
24151;SDS011;12311;50.866;4.332;2023-06-22T09:23:39;10.20;;;4.35;;
24151;SDS011;12311;50.866;4.332;2023-06-22T09:26:05;10.05;;;4.88;;
24151;SDS011;12311;50.866;4.332;2023-06-22T09:28:30;8.68;;;4.20;;
24151;SDS011;12311;50.866;4.332;2023-06-22T09:30:56;9.07;;;5.10;;
24151;SDS011;12311;50.866;4.332;2023-06-22T09:33:24;11.73;;;4.75;;
24151;SDS011;12311;50.866;4.332;2023-06-22T09:35:50;11.02;;;4.85;;
24151;SDS011;12311;50.866;4.332;2023-06-22T09:38:16;10.25;;;4.72;;
24151;SDS011;12311;50.866;4.332;2023-06-22T09:40:42;9.65;;;5.03;;
24151;SDS011;12311;50.866;4.332;2023-06-22T09:43:08;9.93;;;4.93;;
24151;SDS011;12311;50.866;4.332;2023-06-22T09:45:33;9.05;;;4.35;;
24151;SDS011;12311;50.866;4.332;2023-06-22T09:47:59;10.95;;;5.72;;
24151;SDS011;12311;50.866;4.332;2023-06-22T09:50:25;8.43;;;4.85;;
24151;SDS011;12311;50.866;4.332;2023-06-22T09:52:51;9.43;;;4.10;;
24151;SDS011;12311;50.866;4.332;2023-06-22T09:55:20;9.18;;;4.35;;
24151;SDS011;12311;50.866;4.332;2023-06-22T09:57:46;10.38;;;4.65;;
24151;SDS011;12311;50.866;4.332;2023-06-22T10:00:12;8.98;;;4.47;;
24151;SDS011;12311;50.866;4.332;2023-06-22T10:02:40;10.88;;;4.65;;
24151;SDS011;12311;50.866;4.332;2023-06-22T10:05:06;13.02;;;5.40;;
24151;SDS011;12311;50.866;4.332;2023-06-22T10:07:32;10.00;;;5.45;;
24151;SDS011;12311;50.866;4.332;2023-06-22T10:09:58;11.75;;;5.25;;
24151;SDS011;12311;50.866;4.332;2023-06-22T10:12:27;10.05;;;4.90;;
24151;SDS011;12311;50.866;4.332;2023-06-22T10:14:53;12.52;;;4.40;;
24151;SDS011;12311;50.866;4.332;2023-06-22T10:17:18;11.27;;;4.78;;
24151;SDS011;12311;50.866;4.332;2023-06-22T10:19:44;12.38;;;5.15;;
24151;SDS011;12311;50.866;4.332;2023-06-22T10:22:10;12.23;;;4.50;;
24151;SDS011;12311;50.866;4.332;2023-06-22T10:24:35;7.82;;;4.55;;
24151;SDS011;12311;50.866;4.332;2023-06-22T10:27:01;7.75;;;4.55;;
24151;SDS011;12311;50.866;4.332;2023-06-22T10:29:27;11.50;;;4.60;;
24151;SDS011;12311;50.866;4.332;2023-06-22T10:31:52;8.52;;;4.63;;
24151;SDS011;12311;50.866;4.332;2023-06-22T10:34:18;7.38;;;4.72;;
24151;SDS011;12311;50.866;4.332;2023-06-22T10:36:43;10.70;;;4.82;;
24151;SDS011;12311;50.866;4.332;2023-06-22T10:39:12;8.52;;;4.90;;
24151;SDS011;12311;50.866;4.332;2023-06-22T10:41:37;10.82;;;4.78;;
24151;SDS011;12311;50.866;4.332;2023-06-22T10:44:03;10.13;;;4.18;;
24151;SDS011;12311;50.866;4.332;2023-06-22T10:46:29;8.50;;;5.05;;
24151;SDS011;12311;50.866;4.332;2023-06-22T10:48:54;11.35;;;4.75;;
24151;SDS011;12311;50.866;4.332;2023-06-22T10:51:22;11.57;;;5.35;;
24151;SDS011;12311;50.866;4.332;2023-06-22T10:53:47;13.35;;;6.43;;
24151;SDS011;12311;50.866;4.332;2023-06-22T10:56:13;17.13;;;5.65;;
24151;SDS011;12311;50.866;4.332;2023-06-22T10:58:39;11.45;;;4.75;;
24151;SDS011;12311;50.866;4.332;2023-06-22T11:01:04;13.77;;;6.18;;
24151;SDS011;12311;50.866;4.332;2023-06-22T11:03:30;14.35;;;6.53;;
24151;SDS011;12311;50.866;4.332;2023-06-22T11:05:56;17.17;;;7.15;;
24151;SDS011;12311;50.866;4.332;2023-06-22T11:08:21;12.20;;;6.45;;
24151;SDS011;12311;50.866;4.332;2023-06-22T11:10:47;13.13;;;5.95;;
24151;SDS011;12311;50.866;4.332;2023-06-22T11:13:12;13.85;;;5.63;;
24151;SDS011;12311;50.866;4.332;2023-06-22T11:15:38;15.85;;;6.60;;
24151;SDS011;12311;50.866;4.332;2023-06-22T11:18:04;12.57;;;5.18;;
24151;SDS011;12311;50.866;4.332;2023-06-22T11:20:32;12.10;;;6.15;;
24151;SDS011;12311;50.866;4.332;2023-06-22T11:22:59;12.13;;;5.53;;
24151;SDS011;12311;50.866;4.332;2023-06-22T11:25:25;15.88;;;7.70;;
24151;SDS011;12311;50.866;4.332;2023-06-22T11:27:51;10.70;;;5.93;;
24151;SDS011;12311;50.866;4.332;2023-06-22T11:30:18;13.88;;;6.05;;
24151;SDS011;12311;50.866;4.332;2023-06-22T11:32:44;9.63;;;5.68;;
24151;SDS011;12311;50.866;4.332;2023-06-22T11:35:10;12.98;;;5.10;;
24151;SDS011;12311;50.866;4.332;2023-06-22T11:37:36;9.20;;;5.45;;
24151;SDS011;12311;50.866;4.332;2023-06-22T11:40:01;12.98;;;5.57;;
24151;SDS011;12311;50.866;4.332;2023-06-22T11:42:30;10.57;;;4.95;;
24151;SDS011;12311;50.866;4.332;2023-06-22T11:44:56;10.43;;;4.97;;
24151;SDS011;12311;50.866;4.332;2023-06-22T11:47:21;9.85;;;4.72;;
24151;SDS011;12311;50.866;4.332;2023-06-22T11:49:47;10.70;;;5.38;;
24151;SDS011;12311;50.866;4.332;2023-06-22T11:52:12;10.77;;;5.80;;
24151;SDS011;12311;50.866;4.332;2023-06-22T11:54:38;12.70;;;5.95;;
24151;SDS011;12311;50.866;4.332;2023-06-22T11:57:04;10.85;;;5.32;;
24151;SDS011;12311;50.866;4.332;2023-06-22T11:59:29;12.02;;;5.15;;
24151;SDS011;12311;50.866;4.332;2023-06-22T12:01:55;11.43;;;5.32;;
24151;SDS011;12311;50.866;4.332;2023-06-22T12:04:23;9.30;;;5.25;;
24151;SDS011;12311;50.866;4.332;2023-06-22T12:06:48;11.80;;;5.90;;
24151;SDS011;12311;50.866;4.332;2023-06-22T12:09:14;14.02;;;5.78;;
24151;SDS011;12311;50.866;4.332;2023-06-22T12:11:40;12.07;;;5.45;;
24151;SDS011;12311;50.866;4.332;2023-06-22T12:14:05;9.52;;;4.68;;
24151;SDS011;12311;50.866;4.332;2023-06-22T12:16:31;12.25;;;6.90;;
24151;SDS011;12311;50.866;4.332;2023-06-22T12:18:57;12.13;;;5.95;;
24151;SDS011;12311;50.866;4.332;2023-06-22T12:21:22;13.75;;;6.70;;
24151;SDS011;12311;50.866;4.332;2023-06-22T12:23:48;15.90;;;6.07;;
24151;SDS011;12311;50.866;4.332;2023-06-22T12:26:14;13.85;;;6.10;;
24151;SDS011;12311;50.866;4.332;2023-06-22T12:28:39;12.55;;;5.75;;
24151;SDS011;12311;50.866;4.332;2023-06-22T12:31:05;12.18;;;5.65;;
24151;SDS011;12311;50.866;4.332;2023-06-22T12:33:31;12.30;;;6.78;;
24151;SDS011;12311;50.866;4.332;2023-06-22T12:35:57;15.98;;;6.35;;
24151;SDS011;12311;50.866;4.332;2023-06-22T12:38:22;12.10;;;6.13;;
24151;SDS011;12311;50.866;4.332;2023-06-22T12:40:50;10.18;;;5.65;;
24151;SDS011;12311;50.866;4.332;2023-06-22T12:43:16;11.45;;;5.70;;
24151;SDS011;12311;50.866;4.332;2023-06-22T12:45:42;13.63;;;6.35;;
24151;SDS011;12311;50.866;4.332;2023-06-22T12:48:07;14.60;;;6.65;;
24151;SDS011;12311;50.866;4.332;2023-06-22T12:50:33;13.57;;;6.00;;
24151;SDS011;12311;50.866;4.332;2023-06-22T12:52:59;11.05;;;5.95;;
24151;SDS011;12311;50.866;4.332;2023-06-22T12:55:27;12.60;;;6.13;;
24151;SDS011;12311;50.866;4.332;2023-06-22T12:57:52;11.82;;;6.22;;
24151;SDS011;12311;50.866;4.332;2023-06-22T13:00:18;16.90;;;6.45;;
24151;SDS011;12311;50.866;4.332;2023-06-22T13:02:44;14.65;;;5.90;;
24151;SDS011;12311;50.866;4.332;2023-06-22T13:05:10;13.15;;;7.68;;
24151;SDS011;12311;50.866;4.332;2023-06-22T13:07:36;11.43;;;5.75;;
24151;SDS011;12311;50.866;4.332;2023-06-22T13:10:02;12.00;;;6.00;;
24151;SDS011;12311;50.866;4.332;2023-06-22T13:12:28;15.27;;;6.43;;
24151;SDS011;12311;50.866;4.332;2023-06-22T13:14:53;12.90;;;6.70;;
24151;SDS011;12311;50.866;4.332;2023-06-22T13:17:19;12.50;;;6.78;;
24151;SDS011;12311;50.866;4.332;2023-06-22T13:19:45;13.02;;;6.60;;
24151;SDS011;12311;50.866;4.332;2023-06-22T13:24:57;11.52;;;5.65;;
24151;SDS011;12311;50.866;4.332;2023-06-22T13:27:23;13.45;;;6.53;;
24151;SDS011;12311;50.866;4.332;2023-06-22T13:29:49;12.60;;;6.05;;
24151;SDS011;12311;50.866;4.332;2023-06-22T13:32:14;14.63;;;6.28;;
24151;SDS011;12311;50.866;4.332;2023-06-22T13:34:40;13.20;;;6.97;;
24151;SDS011;12311;50.866;4.332;2023-06-22T13:37:06;13.15;;;6.25;;
24151;SDS011;12311;50.866;4.332;2023-06-22T13:39:32;16.65;;;5.85;;
24151;SDS011;12311;50.866;4.332;2023-06-22T13:41:57;15.52;;;6.65;;
24151;SDS011;12311;50.866;4.332;2023-06-22T13:44:23;16.30;;;6.88;;
24151;SDS011;12311;50.866;4.332;2023-06-22T13:46:53;13.07;;;6.20;;
24151;SDS011;12311;50.866;4.332;2023-06-22T13:49:19;10.88;;;6.30;;
24151;SDS011;12311;50.866;4.332;2023-06-22T13:51:46;11.75;;;6.20;;
24151;SDS011;12311;50.866;4.332;2023-06-22T13:54:15;15.75;;;7.97;;
24151;SDS011;12311;50.866;4.332;2023-06-22T13:56:41;14.13;;;6.78;;
24151;SDS011;12311;50.866;4.332;2023-06-22T13:59:07;18.20;;;7.30;;
24151;SDS011;12311;50.866;4.332;2023-06-22T14:01:36;12.90;;;6.70;;
24151;SDS011;12311;50.866;4.332;2023-06-22T14:04:03;13.30;;;6.85;;
24151;SDS011;12311;50.866;4.332;2023-06-22T14:06:29;14.98;;;6.50;;
24151;SDS011;12311;50.866;4.332;2023-06-22T14:08:55;9.70;;;5.53;;
24151;SDS011;12311;50.866;4.332;2023-06-22T14:11:21;12.40;;;6.40;;
24151;SDS011;12311;50.866;4.332;2023-06-22T14:13:46;13.25;;;7.07;;
24151;SDS011;12311;50.866;4.332;2023-06-22T14:16:12;11.10;;;5.90;;
24151;SDS011;12311;50.866;4.332;2023-06-22T14:18:38;14.77;;;5.97;;
24151;SDS011;12311;50.866;4.332;2023-06-22T14:21:03;12.50;;;5.90;;
24151;SDS011;12311;50.866;4.332;2023-06-22T14:23:29;11.50;;;5.88;;
24151;SDS011;12311;50.866;4.332;2023-06-22T14:25:55;11.85;;;6.40;;
24151;SDS011;12311;50.866;4.332;2023-06-22T14:28:21;11.30;;;6.03;;
24151;SDS011;12311;50.866;4.332;2023-06-22T14:30:46;14.85;;;6.43;;
24151;SDS011;12311;50.866;4.332;2023-06-22T14:33:12;14.05;;;6.93;;
24151;SDS011;12311;50.866;4.332;2023-06-22T14:35:38;11.18;;;6.47;;
24151;SDS011;12311;50.866;4.332;2023-06-22T14:38:04;15.70;;;7.78;;
24151;SDS011;12311;50.866;4.332;2023-06-22T14:40:29;13.90;;;7.25;;
24151;SDS011;12311;50.866;4.332;2023-06-22T14:42:55;18.75;;;7.95;;
24151;SDS011;12311;50.866;4.332;2023-06-22T14:45:22;13.93;;;8.05;;
24151;SDS011;12311;50.866;4.332;2023-06-22T14:47:48;15.07;;;7.72;;